sensor_id;sensor_type;location;lat;lon;timestamp;pressure;altitude;pressure_sealevel;temperature;humidity
52535;BME280;38443;53.164;5.802;2024-01-16T00:00:18;102006.59;;;-1.75;100.00
52535;BME280;38443;53.164;5.802;2024-01-16T00:02:43;102033.66;;;-1.76;100.00
52535;BME280;38443;53.164;5.802;2024-01-16T00:05:09;102050.41;;;-1.74;100.00
52535;BME280;38443;53.164;5.802;2024-01-16T00:07:38;102077.41;;;-1.77;100.00
52535;BME280;38443;53.164;5.802;2024-01-16T00:10:04;102094.81;;;-1.79;100.00
52535;BME280;38443;53.164;5.802;2024-01-16T00:12:29;102126.19;;;-1.82;100.00
52535;BME280;38443;53.164;5.802;2024-01-16T00:14:55;102145.28;;;-1.85;100.00
52535;BME280;38443;53.164;5.802;2024-01-16T00:17:20;102159.25;;;-1.86;100.00
52535;BME280;38443;53.164;5.802;2024-01-16T00:19:45;102176.66;;;-1.88;100.00
52535;BME280;38443;53.164;5.802;2024-01-16T00:22:10;102198.56;;;-1.87;100.00
52535;BME280;38443;53.164;5.802;2024-01-16T00:24:36;102216.91;;;-1.87;100.00
52535;BME280;38443;53.164;5.802;2024-01-16T00:27:01;102240.72;;;-1.83;100.00
52535;BME280;38443;53.164;5.802;2024-01-16T00:29:26;102265.38;;;-1.79;100.00
52535;BME280;38443;53.164;5.802;2024-01-16T00:31:51;102271.59;;;-1.77;100.00
52535;BME280;38443;53.164;5.802;2024-01-16T00:34:17;102280.31;;;-1.78;100.00
52535;BME280;38443;53.164;5.802;2024-01-16T00:36:42;102290.81;;;-1.78;100.00
52535;BME280;38443;53.164;5.802;2024-01-16T00:39:07;102294.25;;;-1.79;100.00
52535;BME280;38443;53.164;5.802;2024-01-16T00:41:33;102298.53;;;-1.81;100.00
52535;BME280;38443;53.164;5.802;2024-01-16T00:43:58;102302.75;;;-1.85;100.00
52535;BME280;38443;53.164;5.802;2024-01-16T00:46:23;102307.03;;;-1.87;100.00
52535;BME280;38443;53.164;5.802;2024-01-16T00:48:49;102319.34;;;-1.86;100.00
52535;BME280;38443;53.164;5.802;2024-01-16T00:51:14;102316.72;;;-1.86;100.00
52535;BME280;38443;53.164;5.802;2024-01-16T00:53:43;102311.38;;;-1.87;100.00
52535;BME280;38443;53.164;5.802;2024-01-16T00:56:09;102325.41;;;-1.87;100.00
52535;BME280;38443;53.164;5.802;2024-01-16T00:58:34;102336.75;;;-1.88;100.00
52535;BME280;38443;53.164;5.802;2024-01-16T01:01:00;102341.22;;;-1.85;100.00
52535;BME280;38443;53.164;5.802;2024-01-16T01:03:25;102353.56;;;-1.83;100.00
52535;BME280;38443;53.164;5.802;2024-01-16T01:05:50;102358.97;;;-1.79;100.00
52535;BME280;38443;53.164;5.802;2024-01-16T01:08:16;102361.72;;;-1.76;100.00
52535;BME280;38443;53.164;5.802;2024-01-16T01:10:41;102375.97;;;-1.71;100.00
52535;BME280;38443;53.164;5.802;2024-01-16T01:13:07;102378.75;;;-1.68;100.00
52535;BME280;38443;53.164;5.802;2024-01-16T01:15:32;102388.56;;;-1.64;100.00
52535;BME280;38443;53.164;5.802;2024-01-16T01:17:58;102393.03;;;-1.62;100.00
52535;BME280;38443;53.164;5.802;2024-01-16T01:20:23;102401.00;;;-1.60;100.00
52535;BME280;38443;53.164;5.802;2024-01-16T01:22:48;102401.00;;;-1.60;100.00
52535;BME280;38443;53.164;5.802;2024-01-16T01:25:13;102401.88;;;-1.59;100.00
52535;BME280;38443;53.164;5.802;2024-01-16T01:27:39;102397.59;;;-1.57;100.00
52535;BME280;38443;53.164;5.802;2024-01-16T01:30:05;102402.94;;;-1.56;100.00
52535;BME280;38443;53.164;5.802;2024-01-16T01:32:31;102407.25;;;-1.56;100.00
52535;BME280;38443;53.164;5.802;2024-01-16T01:34:57;102409.22;;;-1.52;100.00
52535;BME280;38443;53.164;5.802;2024-01-16T01:37:23;102409.50;;;-1.46;100.00
52535;BME280;38443;53.164;5.802;2024-01-16T01:39:48;102406.28;;;-1.39;100.00
52535;BME280;38443;53.164;5.802;2024-01-16T01:42:15;102406.56;;;-1.33;100.00
52535;BME280;38443;53.164;5.802;2024-01-16T01:44:40;102401.59;;;-1.27;100.00
52535;BME280;38443;53.164;5.802;2024-01-16T01:47:07;102396.59;;;-1.21;100.00
52535;BME280;38443;53.164;5.802;2024-01-16T01:49:32;102383.44;;;-1.22;100.00
52535;BME280;38443;53.164;5.802;2024-01-16T01:51:57;102363.81;;;-1.30;100.00
52535;BME280;38443;53.164;5.802;2024-01-16T01:54:23;102350.25;;;-1.39;100.00
52535;BME280;38443;53.164;5.802;2024-01-16T01:56:49;102341.22;;;-1.46;100.00
52535;BME280;38443;53.164;5.802;2024-01-16T01:59:17;102333.28;;;-1.48;100.00
52535;BME280;38443;53.164;5.802;2024-01-16T02:01:46;102315.59;;;-1.52;100.00
52535;BME280;38443;53.164;5.802;2024-01-16T02:04:14;102311.06;;;-1.54;100.00
52535;BME280;38443;53.164;5.802;2024-01-16T02:06:42;102285.59;;;-1.57;100.00
52535;BME280;38443;53.164;5.802;2024-01-16T02:09:09;102275.03;;;-1.58;100.00
52535;BME280;38443;53.164;5.802;2024-01-16T02:11:35;102261.78;;;-1.62;100.00
52535;BME280;38443;53.164;5.802;2024-01-16T02:14:00;102243.34;;;-1.63;100.00
52535;BME280;38443;53.164;5.802;2024-01-16T02:16:25;102219.59;;;-1.66;100.00
52535;BME280;38443;53.164;5.802;2024-01-16T02:18:52;102205.53;;;-1.67;100.00
52535;BME280;38443;53.164;5.802;2024-01-16T02:21:21;102194.16;;;-1.67;100.00
52535;BME280;38443;53.164;5.802;2024-01-16T02:23:47;102184.53;;;-1.67;100.00
52535;BME280;38443;53.164;5.802;2024-01-16T02:26:16;102162.66;;;-1.67;100.00
52535;BME280;38443;53.164;5.802;2024-01-16T02:28:42;102152.16;;;-1.67;100.00
52535;BME280;38443;53.164;5.802;2024-01-16T02:31:07;102127.59;;;-1.69;100.00
52535;BME280;38443;53.164;5.802;2024-01-16T02:33:33;102111.75;;;-1.71;100.00
52535;BME280;38443;53.164;5.802;2024-01-16T02:35:58;102081.94;;;-1.73;100.00
52535;BME280;38443;53.164;5.802;2024-01-16T02:38:23;102071.50;;;-1.71;100.00
52535;BME280;38443;53.164;5.802;2024-01-16T02:40:49;102062.03;;;-1.68;100.00
52535;BME280;38443;53.164;5.802;2024-01-16T02:43:15;102042.94;;;-1.64;100.00
52535;BME280;38443;53.164;5.802;2024-01-16T02:45:40;102025.63;;;-1.58;100.00
52535;BME280;38443;53.164;5.802;2024-01-16T02:48:05;102016.09;;;-1.56;100.00
52535;BME280;38443;53.164;5.802;2024-01-16T02:50:31;102014.38;;;-1.56;100.00
52535;BME280;38443;53.164;5.802;2024-01-16T02:52:56;102002.97;;;-1.56;100.00
52535;BME280;38443;53.164;5.802;2024-01-16T02:55:21;101997.66;;;-1.58;100.00
52535;BME280;38443;53.164;5.802;2024-01-16T02:57:46;101994.25;;;-1.55;100.00
52535;BME280;38443;53.164;5.802;2024-01-16T03:00:12;101993.41;;;-1.54;100.00
52535;BME280;38443;53.164;5.802;2024-01-16T03:02:39;101991.81;;;-1.51;100.00
52535;BME280;38443;53.164;5.802;2024-01-16T03:05:04;101993.59;;;-1.50;100.00
52535;BME280;38443;53.164;5.802;2024-01-16T03:07:33;101985.84;;;-1.47;100.00
52535;BME280;38443;53.164;5.802;2024-01-16T03:09:58;101991.22;;;-1.44;100.00
52535;BME280;38443;53.164;5.802;2024-01-16T03:12:23;101994.56;;;-1.48;100.00
52535;BME280;38443;53.164;5.802;2024-01-16T03:14:48;101996.16;;;-1.51;100.00
52535;BME280;38443;53.164;5.802;2024-01-16T03:17:14;101997.78;;;-1.55;100.00
52535;BME280;38443;53.164;5.802;2024-01-16T03:19:39;101994.31;;;-1.54;100.00
52535;BME280;38443;53.164;5.802;2024-01-16T03:22:04;101992.59;;;-1.53;100.00
52535;BME280;38443;53.164;5.802;2024-01-16T03:24:29;102007.56;;;-1.51;100.00
52535;BME280;38443;53.164;5.802;2024-01-16T03:26:55;102012.00;;;-1.50;100.00
52535;BME280;38443;53.164;5.802;2024-01-16T03:29:20;102019.88;;;-1.50;100.00
52535;BME280;38443;53.164;5.802;2024-01-16T03:31:46;102021.53;;;-1.52;100.00
52535;BME280;38443;53.164;5.802;2024-01-16T03:34:11;102030.22;;;-1.53;100.00
52535;BME280;38443;53.164;5.802;2024-01-16T03:36:37;102035.38;;;-1.56;100.00
52535;BME280;38443;53.164;5.802;2024-01-16T03:39:03;102037.88;;;-1.59;100.00
52535;BME280;38443;53.164;5.802;2024-01-16T03:41:28;102032.50;;;-1.62;100.00
52535;BME280;38443;53.164;5.802;2024-01-16T03:43:53;102045.63;;;-1.62;100.00
52535;BME280;38443;53.164;5.802;2024-01-16T03:46:22;102049.94;;;-1.64;100.00
52535;BME280;38443;53.164;5.802;2024-01-16T03:48:47;102051.72;;;-1.63;100.00
52535;BME280;38443;53.164;5.802;2024-01-16T03:51:12;102046.47;;;-1.63;100.00
52535;BME280;38443;53.164;5.802;2024-01-16T03:53:41;102054.25;;;-1.65;100.00
52535;BME280;38443;53.164;5.802;2024-01-16T03:56:06;102058.63;;;-1.65;100.00
52535;BME280;38443;53.164;5.802;2024-01-16T03:58:33;102059.47;;;-1.66;100.00
52535;BME280;38443;53.164;5.802;2024-01-16T04:00:58;102063.81;;;-1.67;100.00
52535;BME280;38443;53.164;5.802;2024-01-16T04:03:23;102065.53;;;-1.67;100.00
52535;BME280;38443;53.164;5.802;2024-01-16T04:05:48;102068.94;;;-1.70;100.00
52535;BME280;38443;53.164;5.802;2024-01-16T04:08:14;102068.88;;;-1.71;100.00
52535;BME280;38443;53.164;5.802;2024-01-16T04:10:39;102070.47;;;-1.75;100.00
52535;BME280;38443;53.164;5.802;2024-01-16T04:13:04;102073.03;;;-1.76;100.00
52535;BME280;38443;53.164;5.802;2024-01-16T04:15:29;102078.25;;;-1.78;100.00
52535;BME280;38443;53.164;5.802;2024-01-16T04:17:55;102080.03;;;-1.77;100.00
52535;BME280;38443;53.164;5.802;2024-01-16T04:20:20;102081.94;;;-1.73;100.00
52535;BME280;38443;53.164;5.802;2024-01-16T04:22:46;102082.88;;;-1.71;100.00
52535;BME280;38443;53.164;5.802;2024-01-16T04:25:11;102082.97;;;-1.69;100.00
52535;BME280;38443;53.164;5.802;2024-01-16T04:27:37;102088.34;;;-1.66;100.00
52535;BME280;38443;53.164;5.802;2024-01-16T04:30:02;102076.34;;;-1.59;100.00
52535;BME280;38443;53.164;5.802;2024-01-16T04:32:28;102082.66;;;-1.54;100.00
52535;BME280;38443;53.164;5.802;2024-01-16T04:34:53;102087.47;;;-1.44;100.00
52535;BME280;38443;53.164;5.802;2024-01-16T04:37:18;102087.72;;;-1.38;100.00
52535;BME280;38443;53.164;5.802;2024-01-16T04:39:43;102086.06;;;-1.36;100.00
52535;BME280;38443;53.164;5.802;2024-01-16T04:42:09;102079.06;;;-1.35;100.00
52535;BME280;38443;53.164;5.802;2024-01-16T04:44:34;102081.75;;;-1.34;100.00
52535;BME280;38443;53.164;5.802;2024-01-16T04:46:59;102074.84;;;-1.32;100.00
52535;BME280;38443;53.164;5.802;2024-01-16T04:49:25;102067.97;;;-1.28;100.00
52535;BME280;38443;53.164;5.802;2024-01-16T04:51:50;102069.09;;;-1.22;100.00
52535;BME280;38443;53.164;5.802;2024-01-16T04:54:15;102058.81;;;-1.15;100.00
52535;BME280;38443;53.164;5.802;2024-01-16T04:56:40;102055.41;;;-1.13;100.00
52535;BME280;38443;53.164;5.802;2024-01-16T04:59:06;102046.56;;;-1.15;100.00
52535;BME280;38443;53.164;5.802;2024-01-16T05:01:31;102038.75;;;-1.13;100.00
52535;BME280;38443;53.164;5.802;2024-01-16T05:03:57;102035.19;;;-1.15;100.00
52535;BME280;38443;53.164;5.802;2024-01-16T05:06:22;102033.34;;;-1.18;100.00
52535;BME280;38443;53.164;5.802;2024-01-16T05:08:47;102026.28;;;-1.19;100.00
52535;BME280;38443;53.164;5.802;2024-01-16T05:11:13;102015.78;;;-1.19;100.00
52535;BME280;38443;53.164;5.802;2024-01-16T05:13:39;102008.75;;;-1.20;100.00
52535;BME280;38443;53.164;5.802;2024-01-16T05:16:05;101998.00;;;-1.26;100.00
52535;BME280;38443;53.164;5.802;2024-01-16T05:18:30;101985.53;;;-1.32;100.00
52535;BME280;38443;53.164;5.802;2024-01-16T05:20:58;101974.91;;;-1.35;100.00
52535;BME280;38443;53.164;5.802;2024-01-16T05:23:23;101978.19;;;-1.41;100.00
52535;BME280;38443;53.164;5.802;2024-01-16T05:25:48;101962.19;;;-1.47;100.00
52535;BME280;38443;53.164;5.802;2024-01-16T05:28:14;101956.84;;;-1.50;100.00
52535;BME280;38443;53.164;5.802;2024-01-16T05:30:39;101951.53;;;-1.51;100.00
52535;BME280;38443;53.164;5.802;2024-01-16T05:33:05;101953.38;;;-1.49;100.00
52535;BME280;38443;53.164;5.802;2024-01-16T05:35:30;101950.81;;;-1.47;100.00
52535;BME280;38443;53.164;5.802;2024-01-16T05:37:55;101947.47;;;-1.43;100.00
52535;BME280;38443;53.164;5.802;2024-01-16T05:40:21;101950.94;;;-1.44;100.00
52535;BME280;38443;53.164;5.802;2024-01-16T05:42:47;101959.72;;;-1.44;100.00
52535;BME280;38443;53.164;5.802;2024-01-16T05:45:13;101951.84;;;-1.44;100.00
52535;BME280;38443;53.164;5.802;2024-01-16T05:47:38;101952.78;;;-1.42;100.00
52535;BME280;38443;53.164;5.802;2024-01-16T05:50:04;101950.25;;;-1.38;100.00
52535;BME280;38443;53.164;5.802;2024-01-16T05:52:30;101952.94;;;-1.37;100.00
52535;BME280;38443;53.164;5.802;2024-01-16T05:54:55;101952.06;;;-1.37;100.00
52535;BME280;38443;53.164;5.802;2024-01-16T05:57:23;101952.00;;;-1.39;100.00
52535;BME280;38443;53.164;5.802;2024-01-16T05:59:48;101953.59;;;-1.43;100.00
52535;BME280;38443;53.164;5.802;2024-01-16T06:02:14;101960.53;;;-1.45;100.00
52535;BME280;38443;53.164;5.802;2024-01-16T06:04:40;101967.53;;;-1.45;100.00
52535;BME280;38443;53.164;5.802;2024-01-16T06:07:05;101974.56;;;-1.44;100.00
52535;BME280;38443;53.164;5.802;2024-01-16T06:09:32;101971.88;;;-1.46;100.00
52535;BME280;38443;53.164;5.802;2024-01-16T06:11:58;101972.84;;;-1.44;100.00
52535;BME280;38443;53.164;5.802;2024-01-16T06:14:23;101976.41;;;-1.42;100.00
52535;BME280;38443;53.164;5.802;2024-01-16T06:16:48;101981.84;;;-1.37;100.00
52535;BME280;38443;53.164;5.802;2024-01-16T06:19:14;101989.00;;;-1.33;100.00
52535;BME280;38443;53.164;5.802;2024-01-16T06:21:41;102003.25;;;-1.26;100.00
52535;BME280;38443;53.164;5.802;2024-01-16T06:24:06;102002.47;;;-1.24;100.00
52535;BME280;38443;53.164;5.802;2024-01-16T06:26:32;102009.47;;;-1.24;100.00
52535;BME280;38443;53.164;5.802;2024-01-16T06:28:58;102022.47;;;-1.27;100.00
52535;BME280;38443;53.164;5.802;2024-01-16T06:31:23;102020.63;;;-1.30;100.00
52535;BME280;38443;53.164;5.802;2024-01-16T06:33:51;102031.88;;;-1.32;100.00
52535;BME280;38443;53.164;5.802;2024-01-16T06:36:16;102037.88;;;-1.36;100.00
52535;BME280;38443;53.164;5.802;2024-01-16T06:38:41;102039.53;;;-1.38;100.00
52535;BME280;38443;53.164;5.802;2024-01-16T06:41:07;102043.97;;;-1.37;100.00
52535;BME280;38443;53.164;5.802;2024-01-16T06:43:32;102050.97;;;-1.38;100.00
52535;BME280;38443;53.164;5.802;2024-01-16T06:45:57;102062.41;;;-1.36;100.00
52535;BME280;38443;53.164;5.802;2024-01-16T06:48:24;102071.03;;;-1.38;100.00
52535;BME280;38443;53.164;5.802;2024-01-16T06:50:50;102067.47;;;-1.41;100.00
52535;BME280;38443;53.164;5.802;2024-01-16T06:53:15;102071.81;;;-1.41;100.00
52535;BME280;38443;53.164;5.802;2024-01-16T06:55:40;102081.31;;;-1.45;100.00
52535;BME280;38443;53.164;5.802;2024-01-16T06:58:06;102087.41;;;-1.46;100.00
52535;BME280;38443;53.164;5.802;2024-01-16T07:00:31;102091.56;;;-1.51;100.00
52535;BME280;38443;53.164;5.802;2024-01-16T07:02:56;102094.03;;;-1.55;100.00
52535;BME280;38443;53.164;5.802;2024-01-16T07:05:22;102099.09;;;-1.60;100.00
52535;BME280;38443;53.164;5.802;2024-01-16T07:07:47;102102.44;;;-1.64;100.00
52535;BME280;38443;53.164;5.802;2024-01-16T07:10:13;102104.03;;;-1.68;100.00
52535;BME280;38443;53.164;5.802;2024-01-16T07:12:46;102104.72;;;-1.72;100.00
52535;BME280;38443;53.164;5.802;2024-01-16T07:15:12;102109.84;;;-1.75;100.00
52535;BME280;38443;53.164;5.802;2024-01-16T07:17:39;102122.91;;;-1.76;100.00
52535;BME280;38443;53.164;5.802;2024-01-16T07:20:04;102136.16;;;-1.73;100.00
52535;BME280;38443;53.164;5.802;2024-01-16T07:22:29;102138.84;;;-1.72;100.00
52535;BME280;38443;53.164;5.802;2024-01-16T07:24:54;102151.19;;;-1.69;100.00
52535;BME280;38443;53.164;5.802;2024-01-16T07:27:20;102166.84;;;-1.72;100.00
52535;BME280;38443;53.164;5.802;2024-01-16T07:29:45;102174.81;;;-1.69;100.00
52535;BME280;38443;53.164;5.802;2024-01-16T07:32:11;102183.66;;;-1.67;100.00
52535;BME280;38443;53.164;5.802;2024-01-16T07:34:36;102189.06;;;-1.64;100.00
52535;BME280;38443;53.164;5.802;2024-01-16T07:37:01;102209.91;;;-1.67;100.00
52535;BME280;38443;53.164;5.802;2024-01-16T07:39:27;102220.41;;;-1.67;100.00
52535;BME280;38443;53.164;5.802;2024-01-16T07:41:52;102236.16;;;-1.67;100.00
52535;BME280;38443;53.164;5.802;2024-01-16T07:44:17;102258.38;;;-1.59;100.00
52535;BME280;38443;53.164;5.802;2024-01-16T07:46:42;102295.81;;;-1.44;100.00
52535;BME280;38443;53.164;5.802;2024-01-16T07:49:08;102309.19;;;-1.37;100.00
52535;BME280;38443;53.164;5.802;2024-01-16T07:51:33;102343.41;;;-1.36;100.00
52535;BME280;38443;53.164;5.802;2024-01-16T07:54:05;102355.84;;;-1.32;100.00
52535;BME280;38443;53.164;5.802;2024-01-16T07:56:31;102380.47;;;-1.30;100.00
52535;BME280;38443;53.164;5.802;2024-01-16T07:58:57;102403.31;;;-1.27;100.00
52535;BME280;38443;53.164;5.802;2024-01-16T08:01:22;102427.84;;;-1.27;100.00
52535;BME280;38443;53.164;5.802;2024-01-16T08:03:47;102455.84;;;-1.27;100.00
52535;BME280;38443;53.164;5.802;2024-01-16T08:06:13;102482.13;;;-1.27;100.00
52535;BME280;38443;53.164;5.802;2024-01-16T08:08:38;102502.31;;;-1.26;100.00
52535;BME280;38443;53.164;5.802;2024-01-16T08:11:04;102533.00;;;-1.25;100.00
52535;BME280;38443;53.164;5.802;2024-01-16T08:13:29;102560.25;;;-1.23;100.00
52535;BME280;38443;53.164;5.802;2024-01-16T08:15:54;102569.94;;;-1.22;100.00
52535;BME280;38443;53.164;5.802;2024-01-16T08:18:20;102602.44;;;-1.20;100.00
52535;BME280;38443;53.164;5.802;2024-01-16T08:20:45;102636.59;;;-1.20;100.00
52535;BME280;38443;53.164;5.802;2024-01-16T08:23:10;102658.41;;;-1.21;100.00
52535;BME280;38443;53.164;5.802;2024-01-16T08:25:35;102675.84;;;-1.23;100.00
52535;BME280;38443;53.164;5.802;2024-01-16T08:28:01;102701.13;;;-1.25;100.00
52535;BME280;38443;53.164;5.802;2024-01-16T08:30:26;102716.66;;;-1.30;100.00
52535;BME280;38443;53.164;5.802;2024-01-16T08:32:51;102742.03;;;-1.30;100.00
52535;BME280;38443;53.164;5.802;2024-01-16T08:35:17;102757.63;;;-1.33;100.00
52535;BME280;38443;53.164;5.802;2024-01-16T08:37:42;102777.66;;;-1.35;100.00
52535;BME280;38443;53.164;5.802;2024-01-16T08:40:07;102798.59;;;-1.37;100.00
52535;BME280;38443;53.164;5.802;2024-01-16T08:42:33;102814.34;;;-1.37;100.00
52535;BME280;38443;53.164;5.802;2024-01-16T08:44:58;102832.66;;;-1.38;100.00
52535;BME280;38443;53.164;5.802;2024-01-16T08:47:23;102856.25;;;-1.40;100.00
52535;BME280;38443;53.164;5.802;2024-01-16T08:49:49;102878.97;;;-1.41;100.00
52535;BME280;38443;53.164;5.802;2024-01-16T08:52:14;102896.44;;;-1.41;100.00
52535;BME280;38443;53.164;5.802;2024-01-16T08:54:41;102913.09;;;-1.41;100.00
52535;BME280;38443;53.164;5.802;2024-01-16T08:57:06;102934.28;;;-1.37;100.00
52535;BME280;38443;53.164;5.802;2024-01-16T08:59:31;102945.03;;;-1.33;100.00
52535;BME280;38443;53.164;5.802;2024-01-16T09:01:57;102966.31;;;-1.28;100.00
52535;BME280;38443;53.164;5.802;2024-01-16T09:04:22;102990.19;;;-1.24;100.00
52535;BME280;38443;53.164;5.802;2024-01-16T09:06:48;103003.56;;;-1.19;100.00
52535;BME280;38443;53.164;5.802;2024-01-16T09:09:13;103024.03;;;-1.13;100.00
52535;BME280;38443;53.164;5.802;2024-01-16T09:11:41;103033.06;;;-1.08;100.00
52535;BME280;38443;53.164;5.802;2024-01-16T09:14:06;103042.19;;;-1.02;100.00
52535;BME280;38443;53.164;5.802;2024-01-16T09:16:31;103058.38;;;-0.94;100.00
52535;BME280;38443;53.164;5.802;2024-01-16T09:18:57;103055.78;;;-0.92;100.00
52535;BME280;38443;53.164;5.802;2024-01-16T09:21:22;103072.72;;;-0.87;100.00
52535;BME280;38443;53.164;5.802;2024-01-16T09:23:47;103076.34;;;-0.85;100.00
52535;BME280;38443;53.164;5.802;2024-01-16T09:26:12;103085.41;;;-0.80;100.00
52535;BME280;38443;53.164;5.802;2024-01-16T09:28:38;103109.13;;;-0.78;100.00
52535;BME280;38443;53.164;5.802;2024-01-16T09:31:06;103117.00;;;-0.78;100.00
52535;BME280;38443;53.164;5.802;2024-01-16T09:33:31;103134.50;;;-0.79;100.00
52535;BME280;38443;53.164;5.802;2024-01-16T09:35:56;103158.19;;;-0.79;100.00
52535;BME280;38443;53.164;5.802;2024-01-16T09:38:22;103168.78;;;-0.77;100.00
52535;BME280;38443;53.164;5.802;2024-01-16T09:40:47;103175.78;;;-0.78;100.00
52535;BME280;38443;53.164;5.802;2024-01-16T09:43:12;103173.84;;;-0.81;100.00
52535;BME280;38443;53.164;5.802;2024-01-16T09:45:38;103180.75;;;-0.83;100.00
52535;BME280;38443;53.164;5.802;2024-01-16T09:48:04;103190.22;;;-0.86;100.00
52535;BME280;38443;53.164;5.802;2024-01-16T09:50:30;103208.69;;;-0.85;100.00
52535;BME280;38443;53.164;5.802;2024-01-16T09:52:55;103213.88;;;-0.86;100.00
52535;BME280;38443;53.164;5.802;2024-01-16T09:55:21;103212.25;;;-0.84;100.00
52535;BME280;38443;53.164;5.802;2024-01-16T09:57:46;103225.41;;;-0.84;100.00
52535;BME280;38443;53.164;5.802;2024-01-16T10:00:15;103242.22;;;-0.81;100.00
52535;BME280;38443;53.164;5.802;2024-01-16T10:02:42;103248.56;;;-0.77;100.00
52535;BME280;38443;53.164;5.802;2024-01-16T10:05:09;103269.69;;;-0.75;100.00
52535;BME280;38443;53.164;5.802;2024-01-16T10:07:37;103271.41;;;-0.76;100.00
52535;BME280;38443;53.164;5.802;2024-01-16T10:10:03;103279.47;;;-0.73;100.00
52535;BME280;38443;53.164;5.802;2024-01-16T10:12:28;103282.28;;;-0.70;100.00
52535;BME280;38443;53.164;5.802;2024-01-16T10:14:55;103288.53;;;-0.68;100.00
52535;BME280;38443;53.164;5.802;2024-01-16T10:17:20;103294.03;;;-0.63;100.00
52535;BME280;38443;53.164;5.802;2024-01-16T10:19:50;103301.19;;;-0.61;100.00
52535;BME280;38443;53.164;5.802;2024-01-16T10:22:23;103316.25;;;-0.58;100.00
52535;BME280;38443;53.164;5.802;2024-01-16T10:24:54;103309.03;;;-0.62;100.00
52535;BME280;38443;53.164;5.802;2024-01-16T10:27:28;103324.81;;;-0.62;100.00
52535;BME280;38443;53.164;5.802;2024-01-16T10:29:56;103325.59;;;-0.63;100.00
52535;BME280;38443;53.164;5.802;2024-01-16T10:32:28;103324.69;;;-0.64;100.00
52535;BME280;38443;53.164;5.802;2024-01-16T10:35:11;103337.13;;;-0.61;100.00
52535;BME280;38443;53.164;5.802;2024-01-16T10:37:50;103344.25;;;-0.58;100.00
52535;BME280;38443;53.164;5.802;2024-01-16T10:40:17;103354.97;;;-0.55;100.00
52535;BME280;38443;53.164;5.802;2024-01-16T10:42:44;103352.50;;;-0.52;100.00
52535;BME280;38443;53.164;5.802;2024-01-16T10:45:16;103365.00;;;-0.48;100.00
52535;BME280;38443;53.164;5.802;2024-01-16T10:47:43;103373.91;;;-0.46;100.00
52535;BME280;38443;53.164;5.802;2024-01-16T10:50:09;103361.66;;;-0.46;100.00
52535;BME280;38443;53.164;5.802;2024-01-16T10:52:35;103334.56;;;-0.59;100.00
52535;BME280;38443;53.164;5.802;2024-01-16T10:55:03;103322.44;;;-0.72;100.00
52535;BME280;38443;53.164;5.802;2024-01-16T10:57:34;103307.94;;;-0.81;100.00
52535;BME280;38443;53.164;5.802;2024-01-16T11:00:04;103286.75;;;-0.84;100.00
52535;BME280;38443;53.164;5.802;2024-01-16T11:02:37;103283.38;;;-0.81;100.00
52535;BME280;38443;53.164;5.802;2024-01-16T11:05:04;103282.84;;;-0.75;100.00
52535;BME280;38443;53.164;5.802;2024-01-16T11:07:31;103277.72;;;-0.72;100.00
52535;BME280;38443;53.164;5.802;2024-01-16T11:09:58;103271.22;;;-0.64;100.00
52535;BME280;38443;53.164;5.802;2024-01-16T11:12:23;103273.09;;;-0.62;100.00
52535;BME280;38443;53.164;5.802;2024-01-16T11:14:51;103270.47;;;-0.62;100.00
52535;BME280;38443;53.164;5.802;2024-01-16T11:17:17;103260.75;;;-0.63;100.00
52535;BME280;38443;53.164;5.802;2024-01-16T11:19:46;103245.97;;;-0.61;100.00
52535;BME280;38443;53.164;5.802;2024-01-16T11:22:12;103235.53;;;-0.59;100.00
52535;BME280;38443;53.164;5.802;2024-01-16T11:24:38;103226.09;;;-0.55;100.00
52535;BME280;38443;53.164;5.802;2024-01-16T11:27:03;103223.69;;;-0.51;100.00
52535;BME280;38443;53.164;5.802;2024-01-16T11:31:54;103198.81;;;-0.41;100.00
52535;BME280;38443;53.164;5.802;2024-01-16T11:37:08;103189.91;;;-0.27;100.00
52535;BME280;38443;53.164;5.802;2024-01-16T11:39:35;103169.75;;;-0.26;100.00
52535;BME280;38443;53.164;5.802;2024-01-16T11:42:01;103159.31;;;-0.25;100.00
52535;BME280;38443;53.164;5.802;2024-01-16T11:44:47;103141.97;;;-0.21;100.00
52535;BME280;38443;53.164;5.802;2024-01-16T11:47:17;103138.75;;;-0.15;100.00
52535;BME280;38443;53.164;5.802;2024-01-16T11:49:43;103118.78;;;-0.12;100.00
52535;BME280;38443;53.164;5.802;2024-01-16T11:52:08;103102.03;;;-0.12;100.00
52535;BME280;38443;53.164;5.802;2024-01-16T11:54:36;103069.44;;;-0.16;100.00
52535;BME280;38443;53.164;5.802;2024-01-16T12:00:05;103046.19;;;-0.07;100.00
52535;BME280;38443;53.164;5.802;2024-01-16T12:02:53;103039.53;;;0.00;100.00
52535;BME280;38443;53.164;5.802;2024-01-16T12:05:20;103019.44;;;0.02;100.00
52535;BME280;38443;53.164;5.802;2024-01-16T12:07:50;103001.06;;;0.04;100.00
52535;BME280;38443;53.164;5.802;2024-01-16T12:10:17;102986.31;;;0.07;100.00
52535;BME280;38443;53.164;5.802;2024-01-16T12:12:43;102974.13;;;0.09;100.00
52535;BME280;38443;53.164;5.802;2024-01-16T12:15:12;102961.84;;;0.10;100.00
52535;BME280;38443;53.164;5.802;2024-01-16T12:17:39;102948.97;;;0.16;100.00
52535;BME280;38443;53.164;5.802;2024-01-16T12:20:15;102937.19;;;0.08;100.00
52535;BME280;38443;53.164;5.802;2024-01-16T12:22:41;102916.44;;;-0.04;100.00
52535;BME280;38443;53.164;5.802;2024-01-16T12:25:06;102884.72;;;-0.07;100.00
52535;BME280;38443;53.164;5.802;2024-01-16T12:27:32;102862.78;;;-0.08;100.00
52535;BME280;38443;53.164;5.802;2024-01-16T12:30:04;102829.97;;;-0.14;100.00
52535;BME280;38443;53.164;5.802;2024-01-16T12:32:30;102804.34;;;-0.18;100.00
52535;BME280;38443;53.164;5.802;2024-01-16T12:34:56;102774.34;;;-0.22;100.00
52535;BME280;38443;53.164;5.802;2024-01-16T12:37:21;102749.03;;;-0.20;100.00
52535;BME280;38443;53.164;5.802;2024-01-16T12:39:47;102746.97;;;-0.08;100.00
52535;BME280;38443;53.164;5.802;2024-01-16T12:42:12;102738.13;;;0.11;100.00